Time;durP1;ratioP1;P1;durP2;ratioP2;P2;SDS_P1;SDS_P2;PMS_P1;PMS_P2;Temp;Humidity;BMP_temperature;BMP_pressure;BME280_temperature;BME280_humidity;BME280_pressure;Samples;Min_cycle;Max_cycle;Signal;HPM_P1;HPM_P2
2023/10/25 00:06:40;;;;;;;22.80;20.50;;;;;;;10.46;100.00;97882.02;431222;1273;139454;-63
2023/10/25 00:16:46;;;;;;;23.20;20.80;;;;;;;10.48;100.00;97860.17;431533;1270;139731;-63
2023/10/25 00:26:52;;;;;;;25.30;21.50;;;;;;;10.51;100.00;97849.40;430762;1273;140154;-62
2023/10/25 00:36:58;;;;;;;21.90;19.70;;;;;;;10.53;100.00;97826.27;430666;1270;141026;-62
2023/10/25 00:47:04;;;;;;;22.40;20.10;;;;;;;10.56;100.00;97805.54;430897;1270;140059;-63
2023/10/25 00:57:11;;;;;;;24.00;20.90;;;;;;;10.59;100.00;97795.34;430733;1273;140301;-62
2023/10/25 01:07:17;;;;;;;23.60;19.90;;;;;;;10.60;100.00;97784.53;431702;1269;139676;-62
2023/10/25 01:17:23;;;;;;;24.80;20.00;;;;;;;10.62;100.00;97762.27;430876;1270;139537;-63
2023/10/25 01:27:29;;;;;;;24.70;20.70;;;;;;;10.64;100.00;97745.46;430661;1270;140151;-63
2023/10/25 01:37:35;;;;;;;27.30;22.10;;;;;;;10.65;100.00;97740.09;431141;1270;140906;-61
2023/10/25 01:47:42;;;;;;;23.30;20.80;;;;;;;10.65;100.00;97724.20;431192;1270;139854;-63
2023/10/25 01:57:47;;;;;;;24.70;22.10;;;;;;;10.65;100.00;97705.51;431782;1269;141027;-62
2023/10/25 02:07:53;;;;;;;24.00;21.20;;;;;;;10.62;100.00;97691.77;430986;1273;140477;-63
2023/10/25 02:17:59;;;;;;;22.30;20.00;;;;;;;10.57;100.00;97679.47;431258;1270;139788;-65
2023/10/25 02:28:08;;;;;;;20.00;17.90;;;;;;;10.50;100.00;97669.31;431348;1270;140910;-63
2023/10/25 02:38:14;;;;;;;18.30;16.40;;;;;;;10.46;100.00;97672.46;431581;1270;139745;-63
2023/10/25 02:48:20;;;;;;;18.10;15.40;;;;;;;10.45;100.00;97662.42;432284;1269;140350;-62
2023/10/25 02:58:26;;;;;;;14.40;13.00;;;;;;;10.43;100.00;97648.79;431032;1270;139669;-62
2023/10/25 03:08:32;;;;;;;15.30;13.80;;;;;;;10.44;100.00;97637.71;430852;1273;140088;-63
2023/10/25 03:18:39;;;;;;;13.10;11.90;;;;;;;10.44;100.00;97639.09;431235;1273;139835;-62
2023/10/25 03:28:45;;;;;;;14.40;12.90;;;;;;;10.45;100.00;97636.48;431132;1272;139563;-63
2023/10/25 03:38:51;;;;;;;11.40;10.40;;;;;;;10.42;100.00;97626.48;430919;1271;139692;-63
2023/10/25 03:48:57;;;;;;;10.80;9.90;;;;;;;10.42;100.00;97612.64;431697;1270;139725;-62
2023/10/25 03:59:03;;;;;;;11.10;10.00;;;;;;;10.43;100.00;97609.90;430588;1273;139509;-62
2023/10/25 04:09:09;;;;;;;10.90;9.20;;;;;;;10.45;100.00;97603.83;430575;1273;141187;-62
2023/10/25 04:19:15;;;;;;;10.60;9.60;;;;;;;10.48;100.00;97597.39;430746;1269;139758;-62
2023/10/25 04:29:21;;;;;;;10.60;9.30;;;;;;;10.48;100.00;97587.70;430951;1270;139438;-63
2023/10/25 04:39:26;;;;;;;9.30;8.40;;;;;;;10.50;100.00;97577.82;431008;1272;139541;-62
2023/10/25 04:49:32;;;;;;;9.90;8.00;;;;;;;10.53;100.00;97570.02;430644;1270;139559;-63
2023/10/25 04:59:38;;;;;;;8.00;7.10;;;;;;;10.54;100.00;97563.42;430750;1270;139415;-63
2023/10/25 05:09:45;;;;;;;7.20;6.60;;;;;;;10.56;100.00;97558.52;430662;1271;142537;-62
2023/10/25 05:19:52;;;;;;;7.30;6.70;;;;;;;10.58;100.00;97557.58;430915;1270;139370;-62
2023/10/25 05:30:03;;;;;;;6.10;5.60;;;;;;;10.58;100.00;97564.77;430973;1271;139241;-61
2023/10/25 05:40:15;;;;;;;5.90;5.30;;;;;;;10.57;100.00;97576.42;430539;1269;139768;-64
2023/10/25 05:50:24;;;;;;;10.80;8.40;;;;;;;10.58;100.00;97595.02;431346;1272;139737;-63
2023/10/25 06:00:31;;;;;;;20.10;9.90;;;;;;;10.63;100.00;97605.92;431025;1271;139344;-63
2023/10/25 06:10:38;;;;;;;25.20;10.80;;;;;;;10.70;100.00;97617.23;431417;1270;140687;-63
2023/10/25 06:20:44;;;;;;;18.90;7.80;;;;;;;10.74;100.00;97617.48;431627;1271;140431;-63
2023/10/25 06:30:50;;;;;;;34.40;10.40;;;;;;;10.79;100.00;97626.69;431655;1271;140598;-64
2023/10/25 06:40:57;;;;;;;43.70;16.00;;;;;;;10.84;100.00;97635.52;432447;1267;61371;-63
2023/10/25 06:51:06;;;;;;;12.80;11.30;;;;;;;10.86;100.00;97648.58;430789;1269;261685;-64
2023/10/25 07:01:17;;;;;;;6.90;6.30;;;;;;;10.80;100.00;97665.94;430710;1272;140192;-63
2023/10/25 07:11:23;;;;;;;9.10;7.70;;;;;;;10.67;100.00;97676.92;431560;1272;140462;-63
2023/10/25 07:21:30;;;;;;;8.20;4.40;;;;;;;10.59;100.00;97683.13;431403;1270;139531;-63
2023/10/25 07:31:35;;;;;;;4.30;3.50;;;;;;;10.57;100.00;97686.02;430682;1272;140334;-64
2023/10/25 07:41:42;;;;;;;4.40;3.50;;;;;;;10.69;100.00;97684.98;430764;1270;139156;-64
2023/10/25 07:51:47;;;;;;;3.70;3.20;;;;;;;10.92;100.00;97694.17;430956;1271;140527;-64
2023/10/25 08:01:54;;;;;;;12.60;5.40;;;;;;;10.96;100.00;97707.31;430849;1272;140344;-63
2023/10/25 08:12:00;;;;;;;10.90;3.80;;;;;;;10.87;100.00;97720.95;431022;1270;139544;-64
2023/10/25 08:22:08;;;;;;;3.10;2.70;;;;;;;10.83;100.00;97732.52;430793;1270;140673;-64
2023/10/25 08:32:14;;;;;;;2.30;1.90;;;;;;;10.71;100.00;97747.98;431705;1272;139249;-64
2023/10/25 08:42:21;;;;;;;2.00;1.90;;;;;;;10.53;100.00;97762.40;431042;1273;140316;-64
2023/10/25 08:52:27;;;;;;;2.90;2.60;;;;;;;10.35;100.00;97777.13;431136;1272;140997;-63
2023/10/25 09:02:37;;;;;;;3.60;3.30;;;;;;;10.27;100.00;97783.18;430614;1270;139374;-63
2023/10/25 09:12:44;;;;;;;2.80;2.60;;;;;;;10.24;100.00;97793.55;430686;1270;139330;-63
2023/10/25 09:23:09;;;;;;;3.20;3.00;;;;;;;10.22;100.00;97795.05;430725;1272;140951;-63
2023/10/25 09:33:15;;;;;;;4.30;3.70;;;;;;;10.22;100.00;97802.98;431529;1270;140079;-64
2023/10/25 09:43:22;;;;;;;5.20;4.90;;;;;;;10.23;100.00;97806.02;431083;1270;139797;-63
2023/10/25 09:53:35;;;;;;;6.20;5.70;;;;;;;10.30;100.00;97807.14;431710;1271;139393;-64
2023/10/25 10:03:48;;;;;;;6.70;6.20;;;;;;;10.40;100.00;97803.83;431652;1272;140786;-64
2023/10/25 10:14:25;;;;;;;8.10;7.40;;;;;;;10.41;100.00;97797.79;431733;1270;139741;-64
2023/10/25 10:24:48;;;;;;;9.70;8.80;;;;;;;10.42;100.00;97800.91;431663;1273;139357;-63
2023/10/25 10:34:56;;;;;;;10.10;9.10;;;;;;;10.43;100.00;97803.20;431820;1270;139168;-63
2023/10/25 10:45:05;;;;;;;12.80;11.50;;;;;;;10.38;100.00;97811.66;431607;1270;140055;-64
2023/10/25 10:55:13;;;;;;;14.50;13.00;;;;;;;10.33;100.00;97814.83;430578;1272;141233;-63
2023/10/25 11:05:22;;;;;;;20.10;16.90;;;;;;;10.30;100.00;97825.15;430750;1272;139612;-63
2023/10/25 11:15:31;;;;;;;20.70;17.00;;;;;;;10.35;100.00;97835.95;430629;1272;140696;-64
2023/10/25 11:25:38;;;;;;;19.70;17.50;;;;;;;10.40;100.00;97838.34;430619;1270;139769;-63
2023/10/25 11:35:45;;;;;;;25.60;18.50;;;;;;;10.33;100.00;97840.99;430605;1272;139770;-63
2023/10/25 11:45:51;;;;;;;18.80;16.60;;;;;;;10.37;100.00;97843.78;431158;1272;140360;-63
2023/10/25 11:55:58;;;;;;;16.00;14.30;;;;;;;10.44;100.00;97848.79;430595;1270;142493;-63
2023/10/25 12:06:05;;;;;;;23.00;18.30;;;;;;;10.54;100.00;97850.66;431076;1270;141387;-62
2023/10/25 12:16:11;;;;;;;17.50;13.80;;;;;;;10.63;100.00;97851.05;431369;1269;139922;-63
2023/10/25 12:26:17;;;;;;;15.80;13.80;;;;;;;10.71;100.00;97863.46;431074;1270;140013;-63
2023/10/25 12:36:23;;;;;;;17.80;15.90;;;;;;;10.74;100.00;97866.33;431488;1273;141610;-63
2023/10/25 12:46:29;;;;;;;17.60;15.10;;;;;;;10.72;100.00;97869.37;431067;1271;140910;-63
2023/10/25 12:56:35;;;;;;;21.60;16.70;;;;;;;10.62;100.00;97869.02;430645;1270;139553;-64
2023/10/25 13:06:41;;;;;;;16.80;14.30;;;;;;;10.56;100.00;97875.16;430976;1270;139896;-64
2023/10/25 13:16:46;;;;;;;19.10;17.00;;;;;;;10.52;100.00;97872.41;431365;1272;139670;-63
2023/10/25 13:26:53;;;;;;;18.10;16.20;;;;;;;10.52;100.00;97874.34;431855;1272;139756;-63
2023/10/25 13:36:59;;;;;;;22.60;17.80;;;;;;;10.49;100.00;97874.16;431521;1270;139637;-63
2023/10/25 13:47:05;;;;;;;19.80;16.20;;;;;;;10.45;100.00;97876.84;430951;1271;139395;-64
2023/10/25 13:57:10;;;;;;;23.60;17.30;;;;;;;10.41;100.00;97882.07;430830;1270;141376;-64
2023/10/25 14:07:16;;;;;;;22.50;16.10;;;;;;;10.34;100.00;97888.09;430740;1272;142032;-63
2023/10/25 14:17:22;;;;;;;20.10;14.90;;;;;;;10.28;100.00;97874.19;430973;1271;140194;-64
2023/10/25 14:27:27;;;;;;;18.50;15.00;;;;;;;10.24;100.00;97883.42;430761;1272;139745;-65
2023/10/25 14:37:33;;;;;;;18.90;14.40;;;;;;;10.23;100.00;97888.39;431199;1272;140142;-64
2023/10/25 14:47:39;;;;;;;21.80;15.70;;;;;;;10.22;100.00;97892.84;431493;1271;139823;-64
2023/10/25 14:57:45;;;;;;;17.30;15.50;;;;;;;10.22;100.00;97891.15;431168;1270;140104;-64
2023/10/25 15:07:51;;;;;;;23.40;18.50;;;;;;;10.20;100.00;97882.36;430753;1272;139845;-64
2023/10/25 15:17:57;;;;;;;18.40;16.00;;;;;;;10.19;100.00;97879.02;431334;1271;139826;-64
2023/10/25 15:28:03;;;;;;;22.00;18.00;;;;;;;10.17;100.00;97866.03;430987;1272;140777;-63
2023/10/25 15:38:13;;;;;;;23.20;18.80;;;;;;;10.14;100.00;97860.55;430821;1270;139816;-63
2023/10/25 15:48:19;;;;;;;24.40;19.20;;;;;;;10.13;100.00;97866.91;430803;1271;139882;-63
2023/10/25 15:58:25;;;;;;;24.70;19.20;;;;;;;10.11;100.00;97860.15;430684;1270;139969;-64
2023/10/25 16:08:31;;;;;;;26.40;21.30;;;;;;;10.10;100.00;97855.29;430699;1271;140754;-64
2023/10/25 16:18:38;;;;;;;26.70;18.70;;;;;;;10.12;100.00;97865.34;431690;1272;140736;-63
2023/10/25 16:28:46;;;;;;;22.60;17.70;;;;;;;10.12;100.00;97875.44;430829;1272;140015;-63
2023/10/25 16:38:52;;;;;;;24.30;19.70;;;;;;;10.09;100.00;97876.53;431606;1273;139925;-64
2023/10/25 16:48:57;;;;;;;29.50;21.70;;;;;;;10.07;100.00;97871.44;430935;1272;139715;-64
2023/10/25 16:59:03;;;;;;;32.40;22.80;;;;;;;10.08;100.00;97875.44;431057;1272;139706;-64
2023/10/25 17:09:11;;;;;;;30.50;23.80;;;;;;;10.14;100.00;97878.39;430841;1272;140925;-63
2023/10/25 17:19:17;;;;;;;30.00;24.40;;;;;;;10.21;100.00;97879.11;431295;1273;141011;-64
2023/10/25 17:29:23;;;;;;;22.10;17.40;;;;;;;10.24;100.00;97873.58;431474;1272;139548;-64
2023/10/25 17:39:28;;;;;;;24.00;19.10;;;;;;;10.25;100.00;97864.45;431280;1273;140121;-64
2023/10/25 17:49:34;;;;;;;25.90;21.50;;;;;;;10.26;100.00;97859.50;430843;1272;140343;-64
2023/10/25 17:59:40;;;;;;;27.80;19.40;;;;;;;10.23;100.00;97856.90;431361;1272;140666;-64
2023/10/25 18:09:47;;;;;;;25.60;20.70;;;;;;;10.20;100.00;97861.95;431207;1271;139556;-64
2023/10/25 18:19:54;;;;;;;28.20;21.10;;;;;;;10.18;100.00;97855.84;430979;1272;139956;-62
2023/10/25 18:30:00;;;;;;;24.20;20.50;;;;;;;10.18;100.00;97853.23;432155;1271;139501;-64
2023/10/25 18:40:26;;;;;;;19.00;17.00;;;;;;;10.17;100.00;97845.20;431474;1272;140187;-63
2023/10/25 18:50:33;;;;;;;20.40;18.30;;;;;;;10.16;100.00;97845.71;430893;1271;186359;-63
2023/10/25 19:00:42;;;;;;;20.40;17.90;;;;;;;10.13;100.00;97850.34;430707;1273;139484;-63
2023/10/25 19:10:48;;;;;;;22.70;19.20;;;;;;;10.10;100.00;97857.77;430497;1273;139724;-64
2023/10/25 19:20:55;;;;;;;22.60;19.90;;;;;;;10.09;100.00;97861.30;431395;1269;140080;-64
2023/10/25 19:31:01;;;;;;;21.70;19.40;;;;;;;10.06;100.00;97858.77;431084;1273;141014;-64
2023/10/25 19:41:09;;;;;;;21.20;19.10;;;;;;;9.99;100.00;97854.00;431172;1273;140548;-63
2023/10/25 19:51:16;;;;;;;22.40;19.90;;;;;;;9.92;100.00;97851.82;431357;1273;141196;-63
2023/10/25 20:01:22;;;;;;;22.50;20.10;;;;;;;9.89;100.00;97841.61;431970;1273;139623;-63
2023/10/25 20:11:28;;;;;;;24.50;20.90;;;;;;;9.93;100.00;97831.30;431992;1266;139429;-63
2023/10/25 20:21:34;;;;;;;28.50;24.20;;;;;;;9.94;100.00;97836.04;431050;1273;139643;-63
2023/10/25 20:31:40;;;;;;;24.90;21.30;;;;;;;9.87;100.00;97827.59;430355;1270;139528;-65
2023/10/25 20:41:46;;;;;;;21.90;19.60;;;;;;;9.83;100.00;97830.47;430561;1270;139466;-63
2023/10/25 20:51:53;;;;;;;21.20;18.90;;;;;;;9.80;100.00;97821.08;430547;1270;140477;-64
2023/10/25 21:01:59;;;;;;;19.50;17.70;;;;;;;9.74;100.00;97826.14;431202;1272;141718;-64
2023/10/25 21:12:07;;;;;;;22.50;20.10;;;;;;;9.70;100.00;97831.25;431510;1270;140586;-64
2023/10/25 21:22:14;;;;;;;21.70;18.90;;;;;;;9.68;100.00;97827.36;430883;1270;139620;-64
2023/10/25 21:32:20;;;;;;;22.60;20.20;;;;;;;9.64;100.00;97827.38;430752;1273;139432;-65
2023/10/25 21:42:27;;;;;;;21.50;19.10;;;;;;;9.64;100.00;97815.31;430190;1274;139538;-64
2023/10/25 21:52:34;;;;;;;21.30;19.10;;;;;;;9.62;100.00;97813.89;431115;1275;142497;-63
2023/10/25 22:02:40;;;;;;;20.00;17.90;;;;;;;9.58;100.00;97814.83;430005;1270;139593;-64
2023/10/25 22:12:47;;;;;;;21.90;19.50;;;;;;;9.59;100.00;97812.98;430675;1271;139340;-65
2023/10/25 22:22:53;;;;;;;25.00;22.30;;;;;;;9.56;100.00;97803.93;430929;1275;139757;-64
2023/10/25 22:32:59;;;;;;;27.60;23.10;;;;;;;9.43;100.00;97792.18;430230;1274;139366;-63
2023/10/25 22:43:05;;;;;;;28.80;25.40;;;;;;;9.20;100.00;97786.42;429845;1276;139616;-63
2023/10/25 22:53:11;;;;;;;31.10;26.40;;;;;;;9.08;100.00;97784.20;432300;1273;139844;-64
2023/10/25 23:03:17;;;;;;;32.00;26.00;;;;;;;9.08;100.00;97785.19;429918;1273;139995;-64
2023/10/25 23:13:23;;;;;;;29.70;24.70;;;;;;;9.02;100.00;97767.74;430461;1271;139824;-63
2023/10/25 23:23:29;;;;;;;32.70;26.50;;;;;;;8.85;100.00;97765.96;430567;1274;139435;-64
2023/10/25 23:33:36;;;;;;;28.40;24.40;;;;;;;8.67;100.00;97743.38;429787;1273;139449;-63
2023/10/25 23:43:42;;;;;;;29.50;24.50;;;;;;;8.33;100.00;97730.79;430613;1275;140356;-63
2023/10/25 23:53:47;;;;;;;31.40;27.40;;;;;;;7.97;100.00;97722.00;430515;1276;141015;-63
